Time,TemperatureF,DewpointF,PressureIn,WindDirection,WindDirectionDegrees,WindSpeedMPH,WindSpeedGustMPH,Humidity,HourlyPrecipIn,Conditions,Clouds,dailyrainin,SoftwareType,DateUTC
2013-12-29 00:01:00,38.3,27.7,29.91,North,0,0.0,0.0,65,0.00,,,0.00,WUHU21623XXSP,2013-12-29 06:01:00,
2013-12-29 00:06:00,38.1,27.3,29.91,North,0,0.0,0.0,65,0.00,,,0.00,WUHU21623XXSP,2013-12-29 06:06:00,
2013-12-29 00:11:00,37.9,27.6,29.91,North,0,0.0,0.0,66,0.00,,,0.00,WUHU21623XXSP,2013-12-29 06:11:00,
2013-12-29 00:16:00,37.9,27.6,29.91,North,0,0.0,0.0,66,0.00,,,0.00,WUHU21623XXSP,2013-12-29 06:16:00,
2013-12-29 00:21:00,37.8,27.4,29.91,North,0,0.0,0.0,66,0.00,,,0.00,WUHU21623XXSP,2013-12-29 06:21:00,
2013-12-29 00:26:00,37.8,27.4,29.91,North,0,0.0,0.0,66,0.00,,,0.00,WUHU21623XXSP,2013-12-29 06:26:00,
2013-12-29 00:31:00,37.8,27.4,29.91,North,0,0.0,0.0,66,0.00,,,0.00,WUHU21623XXSP,2013-12-29 06:31:00,
2013-12-29 00:36:00,37.8,27.4,29.90,North,0,0.0,0.0,66,0.00,,,0.00,WUHU21623XXSP,2013-12-29 06:36:00,
2013-12-29 00:41:00,37.8,27.8,29.90,North,0,0.0,0.0,67,0.00,,,0.00,WUHU21623XXSP,2013-12-29 06:41:00,
2013-12-29 00:46:00,37.8,27.8,29.90,North,0,0.0,0.0,67,0.00,,,0.00,WUHU21623XXSP,2013-12-29 06:46:00,
2013-12-29 00:51:00,37.8,27.8,29.89,North,0,0.0,0.0,67,0.00,,,0.00,WUHU21623XXSP,2013-12-29 06:51:00,
2013-12-29 00:56:00,36.7,27.1,29.89,North,0,0.0,0.0,68,0.00,,,0.00,WUHU21623XXSP,2013-12-29 06:56:00,
2013-12-29 01:01:00,36.5,27.1,29.90,North,0,0.0,0.0,68,0.00,,,0.00,WUHU21623XXSP,2013-12-29 07:01:00,
2013-12-29 01:06:00,36.5,26.9,29.90,North,0,0.0,0.0,68,0.00,,,0.00,WUHU21623XXSP,2013-12-29 07:06:00,
2013-12-29 01:11:00,36.3,26.9,29.90,North,0,0.0,0.0,68,0.00,,,0.00,WUHU21623XXSP,2013-12-29 07:11:00,
2013-12-29 01:16:00,36.3,27.1,29.90,North,0,0.0,0.0,69,0.00,,,0.00,WUHU21623XXSP,2013-12-29 07:16:00,
2013-12-29 01:21:00,36.3,27.1,29.89,North,0,0.0,0.0,69,0.00,,,0.00,WUHU21623XXSP,2013-12-29 07:21:00,
2013-12-29 01:26:00,36.3,27.1,29.89,North,0,0.0,0.0,69,0.00,,,0.00,WUHU21623XXSP,2013-12-29 07:26:00,
2013-12-29 01:31:00,36.3,27.1,29.89,North,0,0.0,0.0,70,0.00,,,0.00,WUHU21623XXSP,2013-12-29 07:31:00,
2013-12-29 01:36:00,36.3,27.5,29.89,North,0,0.0,0.0,70,0.00,,,0.00,WUHU21623XXSP,2013-12-29 07:36:00,
2013-12-29 01:41:00,36.3,27.5,29.89,North,0,0.0,0.0,70,0.00,,,0.00,WUHU21623XXSP,2013-12-29 07:41:00,
2013-12-29 01:46:00,36.3,27.5,29.89,North,0,0.0,0.0,70,0.00,,,0.00,WUHU21623XXSP,2013-12-29 07:46:00,
2013-12-29 01:51:00,36.3,27.5,29.90,North,0,0.0,0.0,70,0.00,,,0.00,WUHU21623XXSP,2013-12-29 07:51:00,
2013-12-29 01:56:00,36.3,27.5,29.90,North,0,0.0,0.0,70,0.00,,,0.00,WUHU21623XXSP,2013-12-29 07:56:00,
2013-12-29 02:14:00,37.8,28.9,29.91,North,0,0.0,0.0,70,0.00,,,0.00,WUHU21623XXSP,2013-12-29 08:14:00,
2013-12-29 02:19:00,37.8,28.9,29.91,North,0,0.0,0.0,70,0.00,,,0.00,WUHU21623XXSP,2013-12-29 08:19:00,
2013-12-29 02:24:00,37.8,28.9,29.91,North,0,0.0,0.0,70,0.00,,,0.00,WUHU21623XXSP,2013-12-29 08:24:00,
2013-12-29 02:29:00,38.5,29.6,29.91,North,0,0.0,0.0,70,0.00,,,0.00,WUHU21623XXSP,2013-12-29 08:29:00,
2013-12-29 02:34:00,38.8,29.7,29.91,North,0,0.0,0.0,70,0.00,,,0.00,WUHU21623XXSP,2013-12-29 08:34:00,
2013-12-29 02:39:00,39.0,29.9,29.91,North,0,0.0,0.0,70,0.00,,,0.00,WUHU21623XXSP,2013-12-29 08:39:00,
2013-12-29 02:44:00,39.0,29.7,29.91,North,0,0.0,0.0,69,0.00,,,0.00,WUHU21623XXSP,2013-12-29 08:44:00,
2013-12-29 02:49:00,39.0,29.7,29.91,North,0,0.0,0.0,69,0.00,,,0.00,WUHU21623XXSP,2013-12-29 08:49:00,
2013-12-29 02:54:00,39.0,29.7,29.91,North,0,0.0,0.0,69,0.00,,,0.00,WUHU21623XXSP,2013-12-29 08:54:00,
2013-12-29 02:59:00,39.0,29.7,29.91,North,0,0.0,0.0,69,0.00,,,0.00,WUHU21623XXSP,2013-12-29 08:59:00,
2013-12-29 03:06:00,39.4,30.2,29.91,North,0,0.0,0.0,69,0.00,,,0.00,WUHU21623XXSP,2013-12-29 09:06:00,
2013-12-29 03:11:00,39.4,30.0,29.91,North,0,0.0,0.0,68,0.00,,,0.00,WUHU21623XXSP,2013-12-29 09:11:00,
2013-12-29 03:16:00,39.4,30.0,29.92,North,0,0.0,0.0,69,0.00,,,0.00,WUHU21623XXSP,2013-12-29 09:16:00,
2013-12-29 03:21:00,39.4,30.0,29.92,North,0,0.0,0.0,69,0.00,,,0.00,WUHU21623XXSP,2013-12-29 09:21:00,
2013-12-29 03:26:00,39.6,30.2,29.92,North,0,0.0,0.0,69,0.00,,,0.00,WUHU21623XXSP,2013-12-29 09:26:00,
2013-12-29 03:31:00,39.6,30.2,29.92,North,0,0.0,0.0,69,0.00,,,0.00,WUHU21623XXSP,2013-12-29 09:31:00,
2013-12-29 03:36:00,39.6,30.2,29.92,North,0,0.0,0.0,69,0.00,,,0.00,WUHU21623XXSP,2013-12-29 09:36:00,
2013-12-29 03:41:00,39.4,30.2,29.92,North,0,0.0,0.0,69,0.00,,,0.00,WUHU21623XXSP,2013-12-29 09:41:00,
2013-12-29 03:46:00,39.4,30.0,29.91,North,0,0.0,0.0,69,0.00,,,0.00,WUHU21623XXSP,2013-12-29 09:46:00,
2013-12-29 03:51:00,39.0,29.7,29.92,North,0,0.0,0.0,69,0.00,,,0.00,WUHU21623XXSP,2013-12-29 09:51:00,
2013-12-29 03:56:00,38.8,29.9,29.92,North,0,0.0,0.0,70,0.00,,,0.00,WUHU21623XXSP,2013-12-29 09:56:00,
2013-12-29 04:01:00,38.5,29.9,29.92,North,0,0.0,0.0,71,0.00,,,0.00,WUHU21623XXSP,2013-12-29 10:01:00,
2013-12-29 04:06:00,38.3,29.7,29.92,North,0,0.0,0.0,71,0.00,,,0.00,WUHU21623XXSP,2013-12-29 10:06:00,
2013-12-29 04:11:00,38.3,29.7,29.92,North,0,0.0,0.0,72,0.00,,,0.00,WUHU21623XXSP,2013-12-29 10:11:00,
2013-12-29 04:16:00,37.6,29.4,29.92,North,0,0.0,0.0,73,0.00,,,0.00,WUHU21623XXSP,2013-12-29 10:16:00,
2013-12-29 04:21:00,37.2,29.4,29.92,North,0,0.0,0.0,73,0.00,,,0.00,WUHU21623XXSP,2013-12-29 10:21:00,
2013-12-29 04:26:00,37.0,29.4,29.92,North,0,0.0,0.0,73,0.00,,,0.00,WUHU21623XXSP,2013-12-29 10:26:00,
2013-12-29 04:31:00,36.9,29.0,29.93,North,0,0.0,0.0,73,0.00,,,0.00,WUHU21623XXSP,2013-12-29 10:31:00,
2013-12-29 04:36:00,36.9,29.0,29.93,North,0,0.0,0.0,73,0.00,,,0.00,WUHU21623XXSP,2013-12-29 10:36:00,
2013-12-29 04:41:00,36.9,29.0,29.93,North,0,0.0,0.0,73,0.00,,,0.00,WUHU21623XXSP,2013-12-29 10:41:00,
2013-12-29 04:46:00,36.3,29.6,29.93,North,0,0.0,0.0,76,0.00,,,0.00,WUHU21623XXSP,2013-12-29 10:46:00,
2013-12-29 04:51:00,36.3,29.4,29.94,North,0,0.0,0.0,76,0.00,,,0.00,WUHU21623XXSP,2013-12-29 10:51:00,
2013-12-29 04:56:00,36.3,29.4,29.94,North,0,0.0,0.0,77,0.00,,,0.00,WUHU21623XXSP,2013-12-29 10:56:00,
2013-12-29 05:01:00,36.1,29.6,29.94,North,0,0.0,0.0,77,0.00,,,0.00,WUHU21623XXSP,2013-12-29 11:01:00,
2013-12-29 05:06:00,36.0,29.6,29.94,North,0,0.0,0.0,77,0.00,,,0.00,WUHU21623XXSP,2013-12-29 11:06:00,
2013-12-29 05:11:00,35.8,29.2,29.94,North,0,0.0,0.0,77,0.00,,,0.00,WUHU21623XXSP,2013-12-29 11:11:00,
2013-12-29 05:16:00,35.4,29.2,29.95,North,0,0.0,0.0,78,0.00,,,0.00,WUHU21623XXSP,2013-12-29 11:16:00,
2013-12-29 05:21:00,34.9,28.7,29.95,North,0,0.0,0.0,78,0.00,,,0.00,WUHU21623XXSP,2013-12-29 11:21:00,
2013-12-29 05:26:00,34.7,28.5,29.95,North,0,0.0,0.0,78,0.00,,,0.00,WUHU21623XXSP,2013-12-29 11:26:00,
2013-12-29 05:31:00,34.2,28.1,29.95,North,0,0.0,0.0,78,0.00,,,0.00,WUHU21623XXSP,2013-12-29 11:31:00,
2013-12-29 05:36:00,33.6,27.9,29.95,North,0,0.0,0.0,78,0.00,,,0.00,WUHU21623XXSP,2013-12-29 11:36:00,
2013-12-29 05:41:00,33.6,27.4,29.95,North,0,0.0,0.0,78,0.00,,,0.00,WUHU21623XXSP,2013-12-29 11:41:00,
2013-12-29 05:46:00,33.4,27.6,29.97,North,0,0.0,0.0,79,0.00,,,0.00,WUHU21623XXSP,2013-12-29 11:46:00,
2013-12-29 05:51:00,33.1,27.2,29.97,North,0,0.0,0.0,79,0.00,,,0.00,WUHU21623XXSP,2013-12-29 11:51:00,
2013-12-29 05:56:00,32.9,27.1,29.97,North,0,0.0,0.0,79,0.00,,,0.00,WUHU21623XXSP,2013-12-29 11:56:00,
2013-12-29 06:01:00,32.7,26.9,29.98,North,0,0.0,0.0,79,0.00,,,0.00,WUHU21623XXSP,2013-12-29 12:01:00,
2013-12-29 06:06:00,32.5,26.9,29.98,North,0,0.0,0.0,79,0.00,,,0.00,WUHU21623XXSP,2013-12-29 12:06:00,
2013-12-29 06:11:00,32.2,26.6,29.99,North,0,0.0,0.0,79,0.00,,,0.00,WUHU21623XXSP,2013-12-29 12:11:00,
2013-12-29 06:16:00,31.8,26.4,29.99,North,0,0.0,0.0,79,0.00,,,0.00,WUHU21623XXSP,2013-12-29 12:16:00,
2013-12-29 06:21:00,31.8,26.1,30.00,North,0,0.0,0.0,79,0.00,,,0.00,WUHU21623XXSP,2013-12-29 12:21:00,
2013-12-29 06:26:00,31.3,25.9,30.00,North,0,0.0,0.0,79,0.00,,,0.00,WUHU21623XXSP,2013-12-29 12:26:00,
2013-12-29 06:31:00,31.3,25.6,30.00,North,0,0.0,0.0,79,0.00,,,0.00,WUHU21623XXSP,2013-12-29 12:31:00,
2013-12-29 06:36:00,31.3,25.6,30.01,North,0,0.0,0.0,80,0.00,,,0.00,WUHU21623XXSP,2013-12-29 12:36:00,
2013-12-29 06:41:00,30.9,25.5,30.01,North,0,0.0,0.0,80,0.00,,,0.00,WUHU21623XXSP,2013-12-29 12:41:00,
2013-12-29 06:46:00,30.7,25.5,30.02,North,0,0.0,0.0,80,0.00,,,0.00,WUHU21623XXSP,2013-12-29 12:46:00,
2013-12-29 06:51:00,30.6,25.3,30.02,North,0,0.0,0.0,79,0.00,,,0.00,WUHU21623XXSP,2013-12-29 12:51:00,
2013-12-29 06:56:00,30.0,24.3,30.02,North,0,0.0,0.0,79,0.00,,,0.00,WUHU21623XXSP,2013-12-29 12:56:00,
2013-12-29 07:01:00,30.0,24.3,30.03,North,0,0.0,0.0,79,0.00,,,0.00,WUHU21623XXSP,2013-12-29 13:01:00,
2013-12-29 07:06:00,30.0,24.3,30.03,North,0,0.0,0.0,79,0.00,,,0.00,WUHU21623XXSP,2013-12-29 13:06:00,
2013-12-29 07:11:00,29.7,23.9,30.04,North,0,0.0,0.0,79,0.00,,,0.00,WUHU21623XXSP,2013-12-29 13:11:00,
2013-12-29 07:16:00,29.5,23.8,30.04,North,0,0.0,0.0,79,0.00,,,0.00,WUHU21623XXSP,2013-12-29 13:16:00,
2013-12-29 07:21:00,29.3,23.6,30.05,North,0,0.0,0.0,79,0.00,,,0.00,WUHU21623XXSP,2013-12-29 13:21:00,
2013-12-29 07:26:00,28.9,23.2,30.05,North,0,0.0,0.0,79,0.00,,,0.00,WUHU21623XXSP,2013-12-29 13:26:00,
2013-12-29 07:31:00,28.6,22.9,30.05,North,0,0.0,0.0,79,0.00,,,0.00,WUHU21623XXSP,2013-12-29 13:31:00,
2013-12-29 07:36:00,28.0,22.9,30.06,North,0,0.0,0.0,79,0.00,,,0.00,WUHU21623XXSP,2013-12-29 13:36:00,
2013-12-29 07:41:00,27.7,22.3,30.06,North,0,0.0,0.0,79,0.00,,,0.00,WUHU21623XXSP,2013-12-29 13:41:00,
2013-12-29 07:46:00,27.7,22.0,30.06,North,0,0.0,0.0,79,0.00,,,0.00,WUHU21623XXSP,2013-12-29 13:46:00,
2013-12-29 07:51:00,27.5,21.8,30.07,North,0,0.0,0.0,79,0.00,,,0.00,WUHU21623XXSP,2013-12-29 13:51:00,
2013-12-29 07:56:00,27.3,21.8,30.07,North,0,0.0,0.0,79,0.00,,,0.00,WUHU21623XXSP,2013-12-29 13:56:00,
2013-12-29 08:01:00,27.1,21.4,30.08,North,0,0.0,0.0,79,0.00,,,0.00,WUHU21623XXSP,2013-12-29 14:01:00,
2013-12-29 08:06:00,27.1,21.4,30.08,North,0,0.0,0.0,79,0.00,,,0.00,WUHU21623XXSP,2013-12-29 14:06:00,
2013-12-29 08:11:00,27.1,21.4,30.08,North,0,0.0,0.0,79,0.00,,,0.00,WUHU21623XXSP,2013-12-29 14:11:00,
2013-12-29 08:16:00,26.8,21.1,30.09,North,0,0.0,0.0,79,0.00,,,0.00,WUHU21623XXSP,2013-12-29 14:16:00,
2013-12-29 08:21:00,26.6,20.9,30.09,North,0,0.0,0.0,79,0.00,,,0.00,WUHU21623XXSP,2013-12-29 14:21:00,
2013-12-29 08:26:00,26.6,20.9,30.09,North,0,0.0,0.0,79,0.00,,,0.00,WUHU21623XXSP,2013-12-29 14:26:00,
2013-12-29 08:31:00,26.6,20.9,30.10,North,0,0.0,0.0,79,0.00,,,0.00,WUHU21623XXSP,2013-12-29 14:31:00,
2013-12-29 08:36:00,25.9,20.2,30.09,North,0,0.0,0.0,79,0.00,,,0.00,WUHU21623XXSP,2013-12-29 14:36:00,
2013-12-29 08:41:00,25.7,20.1,30.10,North,0,0.0,0.0,79,0.00,,,0.00,WUHU21623XXSP,2013-12-29 14:41:00,
2013-12-29 08:46:00,25.5,19.6,30.10,North,0,0.0,0.0,78,0.00,,,0.00,WUHU21623XXSP,2013-12-29 14:46:00,
2013-12-29 08:51:00,25.5,19.6,30.10,North,0,0.0,0.0,78,0.00,,,0.00,WUHU21623XXSP,2013-12-29 14:51:00,
2013-12-29 08:56:00,25.3,19.6,30.11,North,0,0.0,0.0,78,0.00,,,0.00,WUHU21623XXSP,2013-12-29 14:56:00,
2013-12-29 09:02:00,25.2,19.3,30.11,North,0,0.0,0.0,78,0.00,,,0.00,WUHU21623XXSP,2013-12-29 15:02:00,
2013-12-29 09:07:00,25.2,19.3,30.12,North,0,0.0,0.0,78,0.00,,,0.00,WUHU21623XXSP,2013-12-29 15:07:00,
2013-12-29 09:12:00,25.0,19.1,30.13,North,0,0.0,0.0,78,0.00,,,0.00,WUHU21623XXSP,2013-12-29 15:12:00,
2013-12-29 09:17:00,25.0,19.1,30.13,North,0,0.0,0.0,78,0.00,,,0.00,WUHU21623XXSP,2013-12-29 15:17:00,
2013-12-29 09:22:00,25.0,19.1,30.13,North,0,0.0,0.0,77,0.00,,,0.00,WUHU21623XXSP,2013-12-29 15:22:00,
2013-12-29 09:27:00,25.0,18.8,30.13,North,0,0.0,0.0,77,0.00,,,0.00,WUHU21623XXSP,2013-12-29 15:27:00,
2013-12-29 09:32:00,25.0,18.8,30.13,North,0,0.0,0.0,77,0.00,,,0.00,WUHU21623XXSP,2013-12-29 15:32:00,
2013-12-29 09:37:00,24.6,18.8,30.14,North,0,0.0,0.0,76,0.00,,,0.00,WUHU21623XXSP,2013-12-29 15:37:00,
2013-12-29 09:42:00,24.8,18.3,30.14,North,0,0.0,0.0,76,0.00,,,0.00,WUHU21623XXSP,2013-12-29 15:42:00,
2013-12-29 09:47:00,24.6,18.3,30.14,North,0,0.0,0.0,75,0.00,,,0.00,WUHU21623XXSP,2013-12-29 15:47:00,
2013-12-29 09:52:00,24.6,17.8,30.15,North,0,0.0,0.0,75,0.00,,,0.00,WUHU21623XXSP,2013-12-29 15:52:00,
2013-12-29 09:57:00,24.6,17.8,30.15,North,0,0.0,0.0,75,0.00,,,0.00,WUHU21623XXSP,2013-12-29 15:57:00,
2013-12-29 10:02:00,24.6,17.8,30.15,North,0,0.0,0.0,75,0.00,,,0.00,WUHU21623XXSP,2013-12-29 16:02:00,
2013-12-29 10:07:00,24.6,17.8,30.15,North,0,0.0,0.0,75,0.00,,,0.00,WUHU21623XXSP,2013-12-29 16:07:00,
2013-12-29 10:12:00,24.6,17.8,30.15,North,0,0.0,0.0,75,0.00,,,0.00,WUHU21623XXSP,2013-12-29 16:12:00,
2013-12-29 10:17:00,24.6,17.8,30.16,North,0,0.0,0.0,74,0.00,,,0.00,WUHU21623XXSP,2013-12-29 16:17:00,
2013-12-29 10:22:00,24.6,17.8,30.16,North,0,0.0,0.0,75,0.00,,,0.00,WUHU21623XXSP,2013-12-29 16:22:00,
2013-12-29 10:27:00,24.6,17.5,30.17,North,0,0.0,0.0,74,0.00,,,0.00,WUHU21623XXSP,2013-12-29 16:27:00,
2013-12-29 10:32:00,24.6,17.5,30.16,North,0,0.0,0.0,74,0.00,,,0.00,WUHU21623XXSP,2013-12-29 16:32:00,
2013-12-29 10:37:00,24.4,17.3,30.17,North,0,0.0,0.0,74,0.00,,,0.00,WUHU21623XXSP,2013-12-29 16:37:00,
2013-12-29 10:42:00,24.1,16.8,30.17,North,0,0.0,0.0,73,0.00,,,0.00,WUHU21623XXSP,2013-12-29 16:42:00,
2013-12-29 10:47:00,23.9,16.6,30.17,North,0,0.0,0.0,73,0.00,,,0.00,WUHU21623XXSP,2013-12-29 16:47:00,
2013-12-29 10:52:00,23.9,16.6,30.18,North,0,0.0,0.0,73,0.00,,,0.00,WUHU21623XXSP,2013-12-29 16:52:00,
2013-12-29 10:57:00,23.7,16.3,30.17,North,0,0.0,0.0,73,0.00,,,0.00,WUHU21623XXSP,2013-12-29 16:57:00,
2013-12-29 11:02:00,23.7,16.3,30.17,North,0,0.0,0.0,73,0.00,,,0.00,WUHU21623XXSP,2013-12-29 17:02:00,
2013-12-29 11:07:00,23.7,16.3,30.16,North,0,0.0,0.0,73,0.00,,,0.00,WUHU21623XXSP,2013-12-29 17:07:00,
2013-12-29 11:12:00,23.9,16.2,30.16,North,0,0.0,0.0,72,0.00,,,0.00,WUHU21623XXSP,2013-12-29 17:12:00,
2013-12-29 11:17:00,23.9,16.2,30.16,North,0,0.0,0.0,72,0.00,,,0.00,WUHU21623XXSP,2013-12-29 17:17:00,
2013-12-29 11:22:00,23.7,16.2,30.16,North,0,0.0,0.0,72,0.00,,,0.00,WUHU21623XXSP,2013-12-29 17:22:00,
2013-12-29 11:27:00,23.7,15.7,30.16,North,0,0.0,0.0,72,0.00,,,0.00,WUHU21623XXSP,2013-12-29 17:27:00,
2013-12-29 11:32:00,23.7,16.0,30.16,North,0,0.0,0.0,72,0.00,,,0.00,WUHU21623XXSP,2013-12-29 17:32:00,
2013-12-29 11:37:00,23.7,16.0,30.16,North,0,0.0,0.0,72,0.00,,,0.00,WUHU21623XXSP,2013-12-29 17:37:00,
2013-12-29 11:42:00,23.7,16.0,30.16,North,0,0.0,0.0,72,0.00,,,0.00,WUHU21623XXSP,2013-12-29 17:42:00,
2013-12-29 11:47:00,23.7,16.0,30.16,North,0,0.0,0.0,72,0.00,,,0.00,WUHU21623XXSP,2013-12-29 17:47:00,
2013-12-29 11:52:00,23.7,16.0,30.16,North,0,0.0,0.0,72,0.00,,,0.00,WUHU21623XXSP,2013-12-29 17:52:00,
2013-12-29 13:42:00,24.1,15.3,30.17,North,0,0.0,0.0,69,0.00,,,0.00,WUHU21623XXSP,2013-12-29 19:42:00,
2013-12-29 13:47:00,24.1,15.3,30.17,North,0,0.0,0.0,69,0.00,,,0.00,WUHU21623XXSP,2013-12-29 19:47:00,
2013-12-29 13:52:00,24.1,15.3,30.17,North,0,0.0,0.0,69,0.00,,,0.00,WUHU21623XXSP,2013-12-29 19:52:00,
2013-12-29 13:57:00,24.1,15.3,30.17,North,0,0.0,0.0,69,0.00,,,0.00,WUHU21623XXSP,2013-12-29 19:57:00,
2013-12-29 14:02:00,24.1,14.7,30.17,North,0,0.0,0.0,69,0.00,,,0.00,WUHU21623XXSP,2013-12-29 20:02:00,
2013-12-29 14:07:00,23.2,14.5,30.17,North,0,0.0,0.0,69,0.00,,,0.00,WUHU21623XXSP,2013-12-29 20:07:00,
2013-12-29 14:12:00,23.2,14.5,30.18,North,0,0.0,0.0,69,0.00,,,0.00,WUHU21623XXSP,2013-12-29 20:12:00,
2013-12-29 14:17:00,22.8,14.2,30.18,North,0,0.0,0.0,69,0.00,,,0.00,WUHU21623XXSP,2013-12-29 20:17:00,
2013-12-29 14:22:00,23.2,14.5,30.18,North,0,0.0,0.0,69,0.00,,,0.00,WUHU21623XXSP,2013-12-29 20:22:00,
2013-12-29 14:27:00,23.2,14.5,30.18,North,0,0.0,0.0,69,0.00,,,0.00,WUHU21623XXSP,2013-12-29 20:27:00,
2013-12-29 14:32:00,23.4,14.7,30.18,North,0,0.0,0.0,69,0.00,,,0.00,WUHU21623XXSP,2013-12-29 20:32:00,
2013-12-29 14:37:00,23.5,14.8,30.18,North,0,0.0,0.0,69,0.00,,,0.00,WUHU21623XXSP,2013-12-29 20:37:00,
2013-12-29 14:42:00,23.4,14.7,30.19,North,0,0.0,0.0,69,0.00,,,0.00,WUHU21623XXSP,2013-12-29 20:42:00,
2013-12-29 14:47:00,23.2,14.5,30.19,North,0,0.0,0.0,69,0.00,,,0.00,WUHU21623XXSP,2013-12-29 20:47:00,
2013-12-29 14:52:00,23.2,14.5,30.19,North,0,0.0,0.0,69,0.00,,,0.00,WUHU21623XXSP,2013-12-29 20:52:00,
2013-12-29 14:57:00,23.4,14.7,30.19,North,0,0.0,0.0,69,0.00,,,0.00,WUHU21623XXSP,2013-12-29 20:57:00,
2013-12-29 15:02:00,23.5,14.8,30.19,North,0,0.0,0.0,69,0.00,,,0.00,WUHU21623XXSP,2013-12-29 21:02:00,
2013-12-29 15:07:00,23.5,14.5,30.19,North,0,0.0,0.0,68,0.00,,,0.00,WUHU21623XXSP,2013-12-29 21:07:00,
2013-12-29 15:12:00,23.7,14.6,30.19,North,0,0.0,0.0,68,0.00,,,0.00,WUHU21623XXSP,2013-12-29 21:12:00,
2013-12-29 15:17:00,23.9,14.8,30.19,North,0,0.0,0.0,68,0.00,,,0.00,WUHU21623XXSP,2013-12-29 21:17:00,
2013-12-29 15:22:00,23.9,14.8,30.20,North,0,0.0,0.0,68,0.00,,,0.00,WUHU21623XXSP,2013-12-29 21:22:00,
2013-12-29 15:27:00,23.9,14.8,30.20,North,0,0.0,0.0,68,0.00,,,0.00,WUHU21623XXSP,2013-12-29 21:27:00,
2013-12-29 15:32:00,23.9,14.8,30.20,North,0,0.0,0.0,68,0.00,,,0.00,WUHU21623XXSP,2013-12-29 21:32:00,
2013-12-29 15:37:00,24.1,15.0,30.21,North,0,0.0,0.0,68,0.00,,,0.00,WUHU21623XXSP,2013-12-29 21:37:00,
2013-12-29 15:42:00,23.9,15.0,30.21,North,0,0.0,0.0,68,0.00,,,0.00,WUHU21623XXSP,2013-12-29 21:42:00,
2013-12-29 15:47:00,23.9,14.8,30.21,North,0,0.0,0.0,68,0.00,,,0.00,WUHU21623XXSP,2013-12-29 21:47:00,
2013-12-29 15:52:00,23.5,14.5,30.21,North,0,0.0,0.0,68,0.00,,,0.00,WUHU21623XXSP,2013-12-29 21:52:00,
2013-12-29 15:57:00,23.5,14.5,30.22,North,0,0.0,0.0,68,0.00,,,0.00,WUHU21623XXSP,2013-12-29 21:57:00,
2013-12-29 16:02:00,23.5,14.5,30.22,North,0,0.0,0.0,68,0.00,,,0.00,WUHU21623XXSP,2013-12-29 22:02:00,
2013-12-29 16:07:00,23.5,14.5,30.22,North,0,0.0,0.0,68,0.00,,,0.00,WUHU21623XXSP,2013-12-29 22:07:00,
2013-12-29 16:12:00,22.8,13.8,30.22,North,0,0.0,0.0,68,0.00,,,0.00,WUHU21623XXSP,2013-12-29 22:12:00,
2013-12-29 16:17:00,22.8,14.2,30.22,North,0,0.0,0.0,69,0.00,,,0.00,WUHU21623XXSP,2013-12-29 22:17:00,
2013-12-29 16:22:00,22.8,14.2,30.22,North,0,0.0,0.0,69,0.00,,,0.00,WUHU21623XXSP,2013-12-29 22:22:00,
2013-12-29 16:27:00,22.8,14.2,30.23,North,0,0.0,0.0,69,0.00,,,0.00,WUHU21623XXSP,2013-12-29 22:27:00,
2013-12-29 16:32:00,22.8,14.2,30.23,North,0,0.0,0.0,69,0.00,,,0.00,WUHU21623XXSP,2013-12-29 22:32:00,
2013-12-29 16:37:00,22.8,14.2,30.23,North,0,0.0,0.0,69,0.00,,,0.00,WUHU21623XXSP,2013-12-29 22:37:00,
2013-12-29 16:42:00,22.8,14.2,30.23,North,0,0.0,0.0,69,0.00,,,0.00,WUHU21623XXSP,2013-12-29 22:42:00,
2013-12-29 16:47:00,22.6,14.0,30.23,North,0,0.0,0.0,69,0.00,,,0.00,WUHU21623XXSP,2013-12-29 22:47:00,
2013-12-29 16:52:00,22.3,13.3,30.23,North,0,0.0,0.0,68,0.00,,,0.00,WUHU21623XXSP,2013-12-29 22:52:00,
2013-12-29 16:57:00,22.1,13.5,30.24,North,0,0.0,0.0,69,0.00,,,0.00,WUHU21623XXSP,2013-12-29 22:57:00,
2013-12-29 17:02:00,22.1,13.5,30.24,North,0,0.0,0.0,69,0.00,,,0.00,WUHU21623XXSP,2013-12-29 23:02:00,
2013-12-29 17:07:00,21.9,13.3,30.25,North,0,0.0,0.0,69,0.00,,,0.00,WUHU21623XXSP,2013-12-29 23:07:00,
2013-12-29 17:12:00,21.7,13.1,30.25,North,0,0.0,0.0,69,0.00,,,0.00,WUHU21623XXSP,2013-12-29 23:12:00,
2013-12-29 17:17:00,21.7,13.1,30.25,North,0,0.0,0.0,69,0.00,,,0.00,WUHU21623XXSP,2013-12-29 23:17:00,
2013-12-29 17:22:00,21.4,12.7,30.26,North,0,0.0,0.0,69,0.00,,,0.00,WUHU21623XXSP,2013-12-29 23:22:00,
2013-12-29 17:27:00,21.4,12.4,30.26,North,0,0.0,0.0,68,0.00,,,0.00,WUHU21623XXSP,2013-12-29 23:27:00,
2013-12-29 17:32:00,21.0,12.1,30.26,North,0,0.0,0.0,68,0.00,,,0.00,WUHU21623XXSP,2013-12-29 23:32:00,
2013-12-29 17:37:00,21.0,12.4,30.26,North,0,0.0,0.0,69,0.00,,,0.00,WUHU21623XXSP,2013-12-29 23:37:00,
2013-12-29 17:42:00,20.8,12.4,30.26,North,0,0.0,0.0,69,0.00,,,0.00,WUHU21623XXSP,2013-12-29 23:42:00,
2013-12-29 17:47:00,20.8,12.2,30.26,North,0,0.0,0.0,69,0.00,,,0.00,WUHU21623XXSP,2013-12-29 23:47:00,
2013-12-29 17:52:00,20.5,11.9,30.26,North,0,0.0,0.0,69,0.00,,,0.00,WUHU21623XXSP,2013-12-29 23:52:00,
2013-12-29 17:57:00,20.5,11.5,30.26,North,0,0.0,0.0,68,0.00,,,0.00,WUHU21623XXSP,2013-12-29 23:57:00,
2013-12-29 18:02:00,20.1,11.3,30.26,North,0,0.0,0.0,68,0.00,,,0.00,WUHU21623XXSP,2013-12-30 00:02:00,
2013-12-29 18:07:00,19.9,11.3,30.26,North,0,0.0,0.0,69,0.00,,,0.00,WUHU21623XXSP,2013-12-30 00:07:00,
2013-12-29 18:12:00,19.9,11.3,30.26,North,0,0.0,0.0,69,0.00,,,0.00,WUHU21623XXSP,2013-12-30 00:12:00,
2013-12-29 18:17:00,19.8,11.1,30.27,North,0,0.0,0.0,69,0.00,,,0.00,WUHU21623XXSP,2013-12-30 00:17:00,
2013-12-29 18:22:00,19.6,11.0,30.27,North,0,0.0,0.0,69,0.00,,,0.00,WUHU21623XXSP,2013-12-30 00:22:00,
2013-12-29 18:27:00,19.6,11.0,30.27,North,0,0.0,0.0,69,0.00,,,0.00,WUHU21623XXSP,2013-12-30 00:27:00,
2013-12-29 18:32:00,19.4,10.4,30.27,North,0,0.0,0.0,68,0.00,,,0.00,WUHU21623XXSP,2013-12-30 00:32:00,
2013-12-29 18:37:00,19.2,10.3,30.27,North,0,0.0,0.0,68,0.00,,,0.00,WUHU21623XXSP,2013-12-30 00:37:00,
2013-12-29 18:42:00,19.2,10.3,30.27,North,0,0.0,0.0,68,0.00,,,0.00,WUHU21623XXSP,2013-12-30 00:42:00,
2013-12-29 18:47:00,19.0,10.1,30.27,North,0,0.0,0.0,68,0.00,,,0.00,WUHU21623XXSP,2013-12-30 00:47:00,
2013-12-29 18:52:00,18.9,9.9,30.28,North,0,0.0,0.0,68,0.00,,,0.00,WUHU21623XXSP,2013-12-30 00:52:00,
2013-12-29 18:57:00,18.7,9.8,30.28,North,0,0.0,0.0,68,0.00,,,0.00,WUHU21623XXSP,2013-12-30 00:57:00,
2013-12-29 19:02:00,18.7,9.8,30.28,North,0,0.0,0.0,68,0.00,,,0.00,WUHU21623XXSP,2013-12-30 01:02:00,
2013-12-29 19:07:00,18.5,9.6,30.28,North,0,0.0,0.0,68,0.00,,,0.00,WUHU21623XXSP,2013-12-30 01:07:00,
2013-12-29 19:12:00,18.3,9.6,30.29,North,0,0.0,0.0,68,0.00,,,0.00,WUHU21623XXSP,2013-12-30 01:12:00,
2013-12-29 19:17:00,18.3,9.5,30.28,North,0,0.0,0.0,68,0.00,,,0.00,WUHU21623XXSP,2013-12-30 01:17:00,
2013-12-29 19:22:00,18.1,9.5,30.28,North,0,0.0,0.0,68,0.00,,,0.00,WUHU21623XXSP,2013-12-30 01:22:00,
2013-12-29 19:27:00,18.1,9.3,30.28,North,0,0.0,0.0,68,0.00,,,0.00,WUHU21623XXSP,2013-12-30 01:27:00,
2013-12-29 19:32:00,18.0,9.1,30.29,North,0,0.0,0.0,68,0.00,,,0.00,WUHU21623XXSP,2013-12-30 01:32:00,
2013-12-29 19:37:00,18.0,9.1,30.29,North,0,0.0,0.0,68,0.00,,,0.00,WUHU21623XXSP,2013-12-30 01:37:00,
2013-12-29 19:42:00,17.8,9.1,30.29,North,0,0.0,0.0,68,0.00,,,0.00,WUHU21623XXSP,2013-12-30 01:42:00,
2013-12-29 19:47:00,17.8,9.0,30.29,North,0,0.0,0.0,68,0.00,,,0.00,WUHU21623XXSP,2013-12-30 01:47:00,
2013-12-29 19:52:00,17.6,8.8,30.29,North,0,0.0,0.0,68,0.00,,,0.00,WUHU21623XXSP,2013-12-30 01:52:00,
2013-12-29 19:57:00,17.4,8.6,30.29,North,0,0.0,0.0,68,0.00,,,0.00,WUHU21623XXSP,2013-12-30 01:57:00,
2013-12-29 20:02:00,17.4,8.3,30.29,North,0,0.0,0.0,67,0.00,,,0.00,WUHU21623XXSP,2013-12-30 02:02:00,
2013-12-29 20:07:00,17.4,8.3,30.29,North,0,0.0,0.0,67,0.00,,,0.00,WUHU21623XXSP,2013-12-30 02:07:00,
2013-12-29 20:12:00,17.4,8.3,30.29,North,0,0.0,0.0,67,0.00,,,0.00,WUHU21623XXSP,2013-12-30 02:12:00,
2013-12-29 20:17:00,17.2,8.1,30.29,North,0,0.0,0.0,67,0.00,,,0.00,WUHU21623XXSP,2013-12-30 02:17:00,
2013-12-29 20:22:00,17.2,8.1,30.29,North,0,0.0,0.0,67,0.00,,,0.00,WUHU21623XXSP,2013-12-30 02:22:00,
2013-12-29 20:27:00,17.2,8.1,30.29,North,0,0.0,0.0,67,0.00,,,0.00,WUHU21623XXSP,2013-12-30 02:27:00,
2013-12-29 20:32:00,17.1,8.5,30.29,North,0,0.0,0.0,68,0.00,,,0.00,WUHU21623XXSP,2013-12-30 02:32:00,
2013-12-29 20:37:00,16.9,8.1,30.29,North,0,0.0,0.0,68,0.00,,,0.00,WUHU21623XXSP,2013-12-30 02:37:00,
2013-12-29 20:42:00,16.9,8.1,30.29,North,0,0.0,0.0,68,0.00,,,0.00,WUHU21623XXSP,2013-12-30 02:42:00,
2013-12-29 20:47:00,16.7,7.9,30.29,North,0,0.0,0.0,68,0.00,,,0.00,WUHU21623XXSP,2013-12-30 02:47:00,
2013-12-29 20:52:00,16.7,7.6,30.29,North,0,0.0,0.0,67,0.00,,,0.00,WUHU21623XXSP,2013-12-30 02:52:00,
2013-12-29 20:57:00,16.5,7.4,30.29,North,0,0.0,0.0,67,0.00,,,0.00,WUHU21623XXSP,2013-12-30 02:57:00,
2013-12-29 21:02:00,16.5,7.4,30.29,North,0,0.0,0.0,67,0.00,,,0.00,WUHU21623XXSP,2013-12-30 03:02:00,
2013-12-29 21:07:00,16.3,7.2,30.29,North,0,0.0,0.0,67,0.00,,,0.00,WUHU21623XXSP,2013-12-30 03:07:00,
2013-12-29 21:12:00,16.2,7.0,30.29,North,0,0.0,0.0,67,0.00,,,0.00,WUHU21623XXSP,2013-12-30 03:12:00,
2013-12-29 21:17:00,16.0,6.9,30.29,North,0,0.0,0.0,67,0.00,,,0.00,WUHU21623XXSP,2013-12-30 03:17:00,
2013-12-29 21:22:00,16.0,6.9,30.30,North,0,0.0,0.0,66,0.00,,,0.00,WUHU21623XXSP,2013-12-30 03:22:00,
2013-12-29 21:27:00,15.8,6.3,30.30,North,0,0.0,0.0,66,0.00,,,0.00,WUHU21623XXSP,2013-12-30 03:27:00,
2013-12-29 21:32:00,15.6,6.2,30.30,North,0,0.0,0.0,65,0.00,,,0.00,WUHU21623XXSP,2013-12-30 03:32:00,
2013-12-29 21:37:00,15.6,5.8,30.30,North,0,0.0,0.0,65,0.00,,,0.00,WUHU21623XXSP,2013-12-30 03:37:00,
2013-12-29 21:42:00,15.6,5.8,30.30,North,0,0.0,0.0,65,0.00,,,0.00,WUHU21623XXSP,2013-12-30 03:42:00,
2013-12-29 21:47:00,15.4,5.3,30.30,North,0,0.0,0.0,64,0.00,,,0.00,WUHU21623XXSP,2013-12-30 03:47:00,
2013-12-29 21:52:00,15.4,5.3,30.30,North,0,0.0,0.0,64,0.00,,,0.00,WUHU21623XXSP,2013-12-30 03:52:00,
2013-12-29 21:57:00,15.3,5.2,30.30,North,0,0.0,0.0,64,0.00,,,0.00,WUHU21623XXSP,2013-12-30 03:57:00,
2013-12-29 22:02:00,15.1,5.0,30.30,North,0,0.0,0.0,64,0.00,,,0.00,WUHU21623XXSP,2013-12-30 04:02:00,
2013-12-29 22:07:00,15.1,4.7,30.30,North,0,0.0,0.0,63,0.00,,,0.00,WUHU21623XXSP,2013-12-30 04:07:00,
2013-12-29 22:12:00,14.9,4.5,30.30,North,0,0.0,0.0,63,0.00,,,0.00,WUHU21623XXSP,2013-12-30 04:12:00,
2013-12-29 22:17:00,14.7,4.3,30.30,North,0,0.0,0.0,63,0.00,,,0.00,WUHU21623XXSP,2013-12-30 04:17:00,
2013-12-29 22:22:00,14.7,4.0,30.30,North,0,0.0,0.0,62,0.00,,,0.00,WUHU21623XXSP,2013-12-30 04:22:00,
2013-12-29 22:27:00,14.7,4.0,30.30,North,0,0.0,0.0,62,0.00,,,0.00,WUHU21623XXSP,2013-12-30 04:27:00,
2013-12-29 22:32:00,14.7,4.0,30.30,North,0,0.0,0.0,62,0.00,,,0.00,WUHU21623XXSP,2013-12-30 04:32:00,
2013-12-29 22:37:00,14.5,3.8,30.31,North,0,0.0,0.0,62,0.00,,,0.00,WUHU21623XXSP,2013-12-30 04:37:00,
2013-12-29 22:42:00,14.5,3.8,30.31,North,0,0.0,0.0,62,0.00,,,0.00,WUHU21623XXSP,2013-12-30 04:42:00,
2013-12-29 22:47:00,14.5,3.8,30.31,North,0,0.0,0.0,62,0.00,,,0.00,WUHU21623XXSP,2013-12-30 04:47:00,
2013-12-29 22:52:00,14.2,3.5,30.31,North,0,0.0,0.0,62,0.00,,,0.00,WUHU21623XXSP,2013-12-30 04:52:00,
2013-12-29 22:58:00,14.2,3.5,30.30,North,0,0.0,0.0,62,0.00,,,0.00,WUHU21623XXSP,2013-12-30 04:58:00,
2013-12-29 23:05:00,13.8,3.2,30.30,North,0,0.0,0.0,62,0.00,,,0.00,WUHU21623XXSP,2013-12-30 05:05:00,
2013-12-29 23:08:00,13.8,3.2,30.30,North,0,0.0,0.0,62,0.00,,,0.00,WUHU21623XXSP,2013-12-30 05:08:00,
2013-12-29 23:13:00,13.8,3.2,30.30,North,0,0.0,0.0,62,0.00,,,0.00,WUHU21623XXSP,2013-12-30 05:13:00,
2013-12-29 23:18:00,13.8,3.2,30.30,North,0,0.0,0.0,62,0.00,,,0.00,WUHU21623XXSP,2013-12-30 05:18:00,
2013-12-29 23:23:00,13.6,3.0,30.30,North,0,0.0,0.0,62,0.00,,,0.00,WUHU21623XXSP,2013-12-30 05:23:00,
2013-12-29 23:28:00,13.6,3.0,30.31,North,0,0.0,0.0,62,0.00,,,0.00,WUHU21623XXSP,2013-12-30 05:28:00,
2013-12-29 23:33:00,13.6,2.6,30.30,North,0,0.0,0.0,61,0.00,,,0.00,WUHU21623XXSP,2013-12-30 05:33:00,
2013-12-29 23:38:00,13.3,2.3,30.30,North,0,0.0,0.0,61,0.00,,,0.00,WUHU21623XXSP,2013-12-30 05:38:00,
2013-12-29 23:43:00,13.3,2.3,30.30,North,0,0.0,0.0,61,0.00,,,0.00,WUHU21623XXSP,2013-12-30 05:43:00,
2013-12-29 23:46:00,13.3,2.3,30.30,North,0,0.0,0.0,61,0.00,,,0.00,WUHU21623XXSP,2013-12-30 05:46:00,
2013-12-29 23:51:00,13.3,2.3,30.30,North,0,0.0,0.0,61,0.00,,,0.00,WUHU21623XXSP,2013-12-30 05:51:00,
2013-12-29 23:56:00,13.1,2.1,30.30,North,0,0.0,0.0,61,0.00,,,0.00,WUHU21623XXSP,2013-12-30 05:56:00,